Kelvedon Hatch, United Kingdom
Current Conditions -  °F | °C
As of 4:20 PM on Friday 31 Oct 2014 (Local Time) from EGSS Reporting Station
Clear Clear  
Wind Chill: 66°   Ceiling: Unl
Heat Index: 66°   Visibility: 6mi
Dew Point: 55°   Wind: 13mph
Humidity: 68%   Direction: 160°SSE
Pressure: 29.97"   Gusts: NA
Location:  51.67°N, 0.27°E
Report Text: EGSS 311620Z 16011KT CAVOK 19/13 Q1015
Loading
Personal Weather Stations






























Interactive Weather Map
Tropical Storm Tracking
New forecast layout! Learn more

10-Day Weather Forecast

Advertisements
Track Severe Weather on mobile